サンティアゴ の空港の天気 - METARとTAF

アルトゥーロ・メリノ・ベニテス国際空港(サンティアゴ) ( SCEL / SCL ) - チリ サンティアゴ
飛行場実況気象(Metar)
観測時間01/23 21:00 CLST (01/24 00:00 UTC)
風向・風速南南西 6m/s
視程10km以上
天気現象
なし
気温24℃
湿度54%
気圧1015hPa
METARSCEL 240000Z 21012KT CAVOK 24/14 Q1015 NOSIG
過去の天気等 Google飛行場航空写真 Wunderground天気予報

過去48時間のMETAR

飛行場予報(TAF)
発表時間: 1/23 19:13 CLST (1/23 22:13 UTC)
予報対象時間: 23日21時 CLST ~ 24日21時 CLST
風向・風速南南西 4m/s
視程10km以上
なし
23日22時 CLST ~ 23日24時 CLST に徐々に
風向・風速南南東 2m/s
24日5時 CLST ~ 24日9時 CLST に一時的に
風向・風速不定 1m/s
視程8000m
なし
24日12時 CLST ~ 24日14時 CLST に徐々に
風向・風速南 4m/s
24日15時 CLST ~ 24日17時 CLST に徐々に
風向・風速南南西 6m/s
TAF SCEL 232213Z 2400/2424 21008KT CAVOK TX31/2419Z TN15/2411Z
BECMG 2401/2403 16004KT
TEMPO 2408/2412 VRB02KT 8000 NSC
BECMG 2415/2417 19008KT
BECMG 2418/2420 21012KT